Other Surface Observations
Issued by NWS Great Falls, MT

Home | Current Version | Previous Version | Text Only | Print | Product List | Glossary On
Versions: 1 2 3 4 5 6 7 8 9 10 11 12 13 14 15 16 17 18 19 20 21 22 23 24 25 26 27 28 29 30 31 32 33 34 35 36 37 38 39 40 41 42 43 44 45 46 47 48 49 50
000
SXUS55 KTFX 210951
OSOTFX

AREA AWOS OBSERVATIONS
NATIONAL WEATHER SERVICE GREAT FALLS MT
0350 AM MDT Mon Apr 21 2014

METAR K1S3 210945Z AUTO 00000KT 10SM 05/M04 A3020
METAR K6S0 210945Z AUTO 00000KT 10SM 02/M07 A3024
METAR K79S 210945Z AUTO 23004KT 02/M06 A3021
METAR K88M 210945Z AUTO 00000KT 10SM M02/M05 A3024
METAR KEKS 210945Z AUTO 00000KT 10SM M01/M08 A3032
METAR KPO1 210945Z AUTO 22005KT 10SM 01/M02 A3018
METAR KPWD 210945Z AUTO 30004KT 10SM 02/01 A3015
METAR KS59 210945Z AUTO 00000KT 10SM M02/M04 A3025
METAR KS71 210945Z AUTO 23003KT 10SM 01/M06 A3019



USA.gov is the U.S. government's official web portal to all federal, state and local government web resources and services.